createdAt,value
2023-03-10T00:00:22.003Z,86.46
2023-03-10T00:02:51.541Z,86.33
2023-03-10T00:05:22.441Z,86.32
2023-03-10T00:07:54.450Z,86.00
2023-03-10T00:10:23.957Z,86.54
2023-03-10T00:12:53.338Z,86.01
2023-03-10T00:15:23.417Z,86.28
2023-03-10T00:17:55.839Z,86.21
2023-03-10T00:20:26.546Z,86.79
2023-03-10T00:22:58.525Z,86.21
2023-03-10T00:25:27.890Z,86.76
2023-03-10T00:27:57.305Z,86.99
2023-03-10T00:30:26.737Z,87.19
2023-03-10T00:32:56.141Z,86.92
2023-03-10T00:35:25.993Z,86.91
2023-03-10T00:37:58.825Z,86.96
2023-03-10T00:40:28.089Z,86.75
2023-03-10T00:42:59.503Z,86.73
2023-03-10T00:45:28.923Z,86.74
2023-03-10T00:47:59.445Z,86.91
2023-03-10T00:50:28.834Z,86.66
2023-03-10T00:53:00.800Z,86.61
2023-03-10T00:55:30.393Z,86.29
2023-03-10T00:57:59.813Z,86.49
2023-03-10T01:00:31.880Z,86.51
2023-03-10T01:03:02.062Z,86.89
2023-03-10T01:05:31.744Z,86.71
2023-03-10T01:08:03.876Z,86.69
2023-03-10T01:10:33.313Z,86.80
2023-03-10T01:13:02.723Z,86.67
2023-03-10T01:15:32.148Z,86.76
2023-03-10T01:18:03.568Z,86.82
2023-03-10T01:20:36.814Z,86.82
2023-03-10T01:23:09.909Z,87.04
2023-03-10T01:25:39.285Z,87.31
2023-03-10T01:28:08.667Z,87.25
2023-03-10T01:30:40.084Z,86.73
2023-03-10T01:33:10.679Z,86.29
2023-03-10T01:35:41.222Z,86.57
2023-03-10T01:38:13.240Z,86.58
2023-03-10T01:40:43.074Z,86.94
2023-03-10T01:43:40.068Z,87.35
2023-03-10T01:46:36.871Z,87.14
2023-03-10T01:49:15.387Z,87.27
2023-03-10T01:51:48.662Z,87.08
2023-03-10T01:54:24.040Z,86.72
2023-03-10T01:56:55.986Z,86.60
2023-03-10T01:59:28.606Z,86.19
2023-03-10T02:02:01.195Z,86.04
2023-03-10T02:04:37.162Z,86.11
2023-03-10T02:07:08.811Z,86.77
2023-03-10T02:09:45.679Z,86.85
2023-03-10T02:12:16.901Z,86.93
2023-03-10T02:14:47.683Z,87.38
2023-03-10T02:17:21.007Z,87.58
2023-03-10T02:20:08.039Z,87.75
2023-03-10T02:22:39.441Z,87.41
2023-03-10T02:25:25.155Z,87.21
2023-03-10T02:27:58.877Z,87.60
2023-03-10T02:30:32.052Z,87.53
2023-03-10T02:33:04.463Z,86.97
2023-03-10T02:35:33.932Z,86.95
2023-03-10T02:38:08.242Z,87.04
2023-03-10T02:40:47.693Z,87.11
2023-03-10T02:43:25.140Z,87.45
2023-03-10T02:46:03.732Z,88.04
2023-03-10T02:48:36.413Z,88.29
2023-03-10T02:51:12.159Z,88.29
2023-03-10T02:53:43.800Z,88.16
2023-03-10T02:56:14.684Z,88.09
2023-03-10T02:58:48.655Z,88.44
2023-03-10T03:01:19.370Z,87.84
2023-03-10T03:03:49.017Z,87.38
2023-03-10T03:06:18.427Z,87.70
2023-03-10T03:08:48.557Z,88.14
2023-03-10T03:11:20.538Z,87.96
2023-03-10T03:13:52.826Z,87.43
2023-03-10T03:16:22.795Z,87.42
2023-03-10T03:18:56.169Z,87.59
2023-03-10T03:21:27.467Z,87.41
2023-03-10T03:23:57.736Z,87.46
2023-03-10T03:26:28.437Z,87.53
2023-03-10T03:29:06.348Z,88.30
2023-03-10T03:31:38.052Z,88.12
2023-03-10T03:34:12.512Z,88.17
2023-03-10T03:36:41.978Z,88.24
2023-03-10T03:39:17.341Z,87.90
2023-03-10T03:41:49.111Z,87.79
2023-03-10T03:44:21.593Z,87.70
2023-03-10T03:46:52.266Z,87.30
2023-03-10T03:49:22.792Z,87.14
2023-03-10T03:51:52.584Z,87.20
2023-03-10T03:54:24.030Z,87.36
2023-03-10T03:56:53.481Z,87.71
2023-03-10T03:59:25.869Z,87.82
2023-03-10T04:01:56.108Z,88.21
2023-03-10T04:04:26.803Z,88.41
2023-03-10T04:06:57.537Z,88.58
2023-03-10T04:09:27.122Z,88.46
2023-03-10T04:11:56.667Z,88.23
2023-03-10T04:14:29.055Z,87.91
2023-03-10T04:16:59.475Z,87.73
2023-03-10T04:19:29.233Z,87.47
2023-03-10T04:22:05.038Z,87.63
2023-03-10T04:24:36.327Z,87.98
2023-03-10T04:27:06.011Z,87.99
2023-03-10T04:29:38.894Z,87.91
2023-03-10T04:32:09.383Z,87.80
2023-03-10T04:34:42.518Z,87.96
2023-03-10T04:37:13.584Z,88.39
2023-03-10T04:39:43.102Z,88.49
2023-03-10T04:42:12.820Z,88.69
2023-03-10T04:44:47.089Z,88.78
2023-03-10T04:47:16.805Z,88.89
2023-03-10T04:49:46.277Z,88.38
2023-03-10T04:52:17.020Z,88.38
2023-03-10T04:54:46.486Z,88.68
2023-03-10T04:57:16.298Z,89.13
2023-03-10T04:59:49.544Z,89.11
2023-03-10T05:02:19.059Z,89.50
2023-03-10T05:04:48.557Z,89.33
2023-03-10T05:07:18.113Z,89.41
2023-03-10T05:09:50.529Z,89.47
2023-03-10T05:12:19.957Z,89.48
2023-03-10T05:14:51.952Z,89.69
2023-03-10T05:17:21.375Z,89.74
2023-03-10T05:19:51.059Z,89.63
2023-03-10T05:22:20.878Z,89.77
2023-03-10T05:24:50.348Z,89.77
2023-03-10T05:27:22.032Z,89.78
2023-03-10T05:29:54.323Z,89.65
2023-03-10T05:32:27.414Z,89.73
2023-03-10T05:34:57.824Z,89.64
2023-03-10T05:37:27.687Z,89.70
2023-03-10T05:39:59.263Z,89.47
2023-03-10T05:42:28.770Z,89.44
2023-03-10T05:45:00.837Z,89.36
2023-03-10T05:47:30.355Z,89.46
2023-03-10T05:49:59.838Z,89.33
2023-03-10T05:52:29.360Z,89.55
2023-03-10T05:54:58.994Z,89.69
2023-03-10T05:57:28.443Z,89.69
2023-03-10T06:00:00.429Z,89.75
2023-03-10T06:02:29.936Z,89.46
2023-03-10T06:04:59.416Z,89.55
2023-03-10T06:07:28.822Z,89.39
2023-03-10T06:09:58.225Z,89.75
2023-03-10T06:12:27.729Z,89.61
2023-03-10T06:14:59.725Z,89.49
2023-03-10T06:17:29.114Z,89.36
2023-03-10T06:19:58.833Z,89.18
2023-03-10T06:22:30.802Z,89.03
2023-03-10T06:25:00.756Z,89.16
2023-03-10T06:27:30.133Z,88.81
2023-03-10T06:30:02.893Z,89.10
2023-03-10T06:32:32.276Z,88.92
2023-03-10T06:35:02.307Z,88.80
2023-03-10T06:37:31.887Z,88.87
2023-03-10T06:40:01.541Z,89.20
2023-03-10T06:42:31.506Z,88.70
2023-03-10T06:45:03.805Z,88.77
2023-03-10T06:47:33.502Z,88.42
2023-03-10T06:50:03.246Z,88.50
2023-03-10T06:52:34.869Z,88.66
2023-03-10T06:55:04.915Z,88.26
2023-03-10T06:57:34.589Z,87.96
2023-03-10T07:00:11.394Z,87.83
2023-03-10T07:02:41.149Z,88.29
2023-03-10T07:05:14.445Z,88.29
2023-03-10T07:07:44.110Z,88.14
2023-03-10T07:10:16.920Z,87.88
2023-03-10T07:12:48.880Z,87.62
2023-03-10T07:15:21.133Z,87.07
2023-03-10T07:17:50.824Z,86.98
2023-03-10T07:20:20.685Z,86.96
2023-03-10T07:22:50.094Z,87.37
2023-03-10T07:25:19.792Z,86.95
2023-03-10T07:27:49.319Z,86.94
2023-03-10T07:30:21.624Z,86.66
2023-03-10T07:32:54.013Z,86.54
2023-03-10T07:35:23.583Z,86.55
2023-03-10T07:37:53.053Z,86.09
2023-03-10T07:40:25.089Z,85.62
2023-03-10T07:42:54.951Z,85.39
2023-03-10T07:45:28.226Z,85.58
2023-03-10T07:47:57.798Z,85.63
2023-03-10T07:50:27.491Z,85.76
2023-03-10T07:52:57.679Z,86.05
2023-03-10T07:55:27.070Z,85.64
2023-03-10T07:57:56.826Z,85.36
2023-03-10T08:00:28.938Z,85.68
2023-03-10T08:02:58.627Z,85.59
2023-03-10T08:05:28.074Z,85.00
2023-03-10T08:07:57.491Z,84.07
2023-03-10T08:10:27.563Z,84.43
2023-03-10T08:12:57.163Z,85.13
2023-03-10T08:15:30.065Z,84.99
2023-03-10T08:17:59.912Z,85.10
2023-03-10T08:20:29.298Z,85.38
2023-03-10T08:22:58.677Z,85.67
2023-03-10T08:25:28.097Z,85.86
2023-03-10T08:27:57.492Z,86.10
2023-03-10T08:30:29.435Z,86.69
2023-03-10T08:32:58.991Z,86.68
2023-03-10T08:35:28.438Z,86.06
2023-03-10T08:37:57.830Z,85.03
2023-03-10T08:40:27.544Z,84.78
2023-03-10T08:42:56.934Z,82.78
2023-03-10T08:45:29.216Z,82.82
2023-03-10T08:47:58.654Z,82.93
2023-03-10T08:50:28.026Z,82.46
2023-03-10T08:52:57.413Z,83.02
2023-03-10T08:55:26.805Z,82.23
2023-03-10T08:57:56.248Z,82.36
2023-03-10T09:00:28.946Z,81.90
2023-03-10T09:02:58.395Z,81.98
2023-03-10T09:05:28.008Z,82.74
2023-03-10T09:07:58.382Z,83.08
2023-03-10T09:10:27.849Z,82.98
2023-03-10T09:13:12.730Z,83.70
2023-03-10T09:15:45.630Z,84.09
2023-03-10T09:18:17.201Z,83.25
2023-03-10T09:20:47.593Z,83.79
2023-03-10T09:23:17.890Z,83.54
2023-03-10T09:25:47.337Z,83.15
2023-03-10T09:28:18.674Z,83.30
2023-03-10T09:30:51.202Z,82.98
2023-03-10T09:33:22.603Z,82.20
2023-03-10T09:36:05.264Z,82.26
2023-03-10T09:38:35.238Z,82.59
2023-03-10T09:41:16.845Z,81.85
2023-03-10T09:43:52.693Z,81.63
2023-03-10T09:46:29.155Z,80.92
2023-03-10T09:49:07.690Z,80.96
2023-03-10T09:51:41.165Z,81.27
2023-03-10T09:54:25.845Z,82.10
2023-03-10T09:56:56.064Z,80.94
2023-03-10T09:59:33.200Z,80.28
2023-03-10T10:02:16.012Z,82.01
2023-03-10T10:04:45.802Z,81.96
2023-03-10T10:07:18.723Z,82.15
2023-03-10T10:09:53.562Z,81.99
2023-03-10T10:12:26.146Z,83.11
2023-03-10T10:14:59.236Z,83.19
2023-03-10T10:17:55.117Z,84.18
2023-03-10T10:20:34.813Z,83.23
2023-03-10T10:23:04.372Z,82.76
2023-03-10T10:25:34.623Z,83.61
2023-03-10T10:28:07.617Z,83.50
2023-03-10T10:30:39.460Z,83.74
2023-03-10T10:33:13.665Z,83.62
2023-03-10T10:35:45.000Z,83.13
2023-03-10T10:38:27.593Z,81.95
2023-03-10T10:41:07.018Z,82.56
2023-03-10T10:43:43.898Z,82.70
2023-03-10T10:46:15.737Z,81.93
2023-03-10T10:48:51.537Z,80.43
2023-03-10T10:51:28.904Z,80.95
2023-03-10T10:53:58.936Z,80.96
2023-03-10T10:56:30.346Z,81.11
2023-03-10T10:59:09.269Z,81.89
2023-03-10T11:02:00.373Z,81.95
2023-03-10T11:04:45.599Z,82.31
2023-03-10T11:07:20.024Z,81.75
2023-03-10T11:09:49.687Z,82.13
2023-03-10T11:12:24.171Z,85.19
2023-03-10T11:15:13.105Z,82.55
2023-03-10T11:17:47.001Z,79.18
2023-03-10T11:20:33.371Z,79.91
2023-03-10T11:23:14.990Z,79.25
2023-03-10T11:25:49.861Z,79.37
2023-03-10T11:28:43.492Z,79.22
2023-03-10T11:31:24.457Z,80.27
2023-03-10T11:34:02.046Z,80.98
2023-03-10T11:36:53.416Z,81.46
2023-03-10T11:39:33.675Z,81.72
2023-03-10T11:42:10.266Z,81.01
2023-03-10T11:44:44.498Z,79.73
2023-03-10T11:47:25.727Z,80.73
2023-03-10T11:50:04.233Z,81.39
2023-03-10T11:52:37.372Z,80.71
2023-03-10T11:55:09.723Z,80.37
2023-03-10T11:57:45.095Z,79.96
2023-03-10T12:00:25.971Z,79.21
2023-03-10T12:03:09.549Z,79.44
2023-03-10T12:05:47.902Z,79.19
2023-03-10T12:08:23.312Z,80.10
2023-03-10T12:10:53.777Z,80.85
2023-03-10T12:13:28.283Z,80.92
2023-03-10T12:16:01.533Z,81.04
2023-03-10T12:18:31.364Z,82.13
2023-03-10T12:21:17.515Z,81.31
2023-03-10T12:23:50.854Z,81.22
2023-03-10T12:26:51.782Z,81.29
2023-03-10T12:29:37.327Z,81.74
2023-03-10T12:32:07.316Z,82.20
2023-03-10T12:34:36.720Z,83.13
2023-03-10T12:37:09.665Z,82.94
2023-03-10T12:39:46.202Z,82.14
2023-03-10T12:42:31.541Z,82.01
2023-03-10T12:45:11.084Z,83.04
2023-03-10T12:47:58.562Z,83.45
2023-03-10T12:50:38.687Z,82.58
2023-03-10T12:53:30.951Z,81.67
2023-03-10T12:56:24.864Z,80.54
2023-03-10T12:59:00.031Z,79.10
2023-03-10T13:01:38.511Z,78.61
2023-03-10T13:04:11.480Z,78.93
2023-03-10T13:06:43.086Z,79.55
2023-03-10T13:09:24.813Z,81.29
2023-03-10T13:12:02.005Z,81.22
2023-03-10T13:14:39.256Z,82.63
2023-03-10T13:17:09.716Z,81.17
2023-03-10T13:19:40.502Z,81.42
2023-03-10T13:22:18.899Z,80.73
2023-03-10T13:25:01.157Z,80.08
2023-03-10T13:27:35.426Z,79.53
2023-03-10T13:30:08.513Z,79.14
2023-03-10T13:32:37.957Z,78.71
2023-03-10T13:35:26.361Z,79.48
2023-03-10T13:38:11.591Z,79.13
2023-03-10T13:40:45.169Z,78.81
2023-03-10T13:43:35.351Z,79.53
2023-03-10T13:46:09.742Z,79.88
2023-03-10T13:48:40.160Z,81.51
2023-03-10T13:51:18.632Z,82.04
2023-03-10T13:53:48.613Z,81.74
2023-03-10T13:56:21.097Z,81.38
2023-03-10T13:58:55.902Z,80.33
2023-03-10T14:01:28.057Z,80.14
2023-03-10T14:04:00.865Z,80.74
2023-03-10T14:06:31.133Z,81.07
2023-03-10T14:09:15.250Z,81.10
2023-03-10T14:11:47.022Z,81.84
2023-03-10T14:14:30.308Z,82.89
2023-03-10T14:17:01.960Z,82.31
2023-03-10T14:19:52.531Z,82.45
2023-03-10T14:22:32.759Z,83.41
2023-03-10T14:25:04.210Z,84.77
2023-03-10T14:27:36.824Z,84.58
2023-03-10T14:30:20.266Z,84.26
2023-03-10T14:32:49.781Z,84.24
2023-03-10T14:35:21.565Z,84.78
2023-03-10T14:37:51.387Z,84.79
2023-03-10T14:40:22.630Z,84.50
2023-03-10T14:42:53.727Z,84.63
2023-03-10T14:45:33.643Z,83.55
2023-03-10T14:48:05.286Z,83.61
2023-03-10T14:50:35.609Z,83.92
2023-03-10T14:53:05.052Z,82.87
2023-03-10T14:55:34.435Z,82.41
2023-03-10T14:58:05.759Z,83.17
2023-03-10T15:00:38.060Z,82.51
2023-03-10T15:03:07.451Z,82.43
2023-03-10T15:05:47.784Z,83.46
2023-03-10T15:08:18.075Z,82.59
2023-03-10T15:10:51.016Z,81.69
2023-03-10T15:13:22.296Z,83.13
2023-03-10T15:15:54.717Z,82.51
2023-03-10T15:18:27.166Z,82.30
2023-03-10T15:21:00.201Z,81.72
2023-03-10T15:23:30.630Z,81.67
2023-03-10T15:26:03.865Z,81.22
2023-03-10T15:28:33.924Z,81.33
2023-03-10T15:31:07.270Z,81.50
2023-03-10T15:33:36.533Z,81.30
2023-03-10T15:36:06.841Z,81.07
2023-03-10T15:38:36.281Z,81.16
2023-03-10T15:41:05.800Z,81.67
2023-03-10T15:43:35.189Z,82.29
2023-03-10T15:46:10.747Z,82.38
2023-03-10T15:48:40.144Z,82.04
2023-03-10T15:51:13.016Z,82.44
2023-03-10T15:53:42.466Z,84.05
2023-03-10T15:56:13.864Z,83.43
2023-03-10T15:58:43.595Z,83.92
2023-03-10T16:01:18.741Z,83.75
2023-03-10T16:03:48.718Z,84.44
2023-03-10T16:06:18.167Z,84.15
2023-03-10T16:08:47.553Z,84.50
2023-03-10T16:11:20.969Z,84.88
2023-03-10T16:13:50.777Z,85.02
2023-03-10T16:16:23.857Z,85.17
2023-03-10T16:18:54.065Z,84.45
2023-03-10T16:21:24.138Z,84.44
2023-03-10T16:23:53.865Z,84.70
2023-03-10T16:26:25.142Z,84.70
2023-03-10T16:28:56.559Z,84.41
2023-03-10T16:31:29.974Z,84.46
2023-03-10T16:33:59.768Z,84.86
2023-03-10T16:36:30.870Z,85.12
2023-03-10T16:39:00.370Z,86.07
2023-03-10T16:41:30.089Z,85.63
2023-03-10T16:43:59.559Z,85.97
2023-03-10T16:46:32.168Z,85.53
2023-03-10T16:49:03.174Z,85.73
2023-03-10T16:51:35.440Z,85.98
2023-03-10T16:54:06.319Z,85.97
2023-03-10T16:56:38.796Z,86.28
2023-03-10T16:59:08.694Z,86.37
2023-03-10T17:01:40.945Z,86.17
2023-03-10T17:04:10.432Z,86.58
2023-03-10T17:06:40.060Z,86.80
2023-03-10T17:09:12.234Z,86.82
2023-03-10T17:11:43.617Z,86.81
2023-03-10T17:14:15.151Z,86.63
2023-03-10T17:16:47.791Z,87.00
2023-03-10T17:19:19.800Z,87.04
2023-03-10T17:21:52.320Z,87.40
2023-03-10T17:24:23.468Z,87.55
2023-03-10T17:26:53.130Z,88.01
2023-03-10T17:29:22.669Z,87.69
2023-03-10T17:31:54.731Z,87.41
2023-03-10T17:34:24.225Z,87.49
2023-03-10T17:36:53.933Z,87.47
2023-03-10T17:39:27.608Z,87.43
2023-03-10T17:41:57.144Z,87.41
2023-03-10T17:44:26.970Z,87.80
2023-03-10T17:46:59.117Z,88.26
2023-03-10T17:49:28.538Z,88.24
2023-03-10T17:51:57.988Z,87.61
2023-03-10T17:54:27.411Z,87.52
2023-03-10T17:56:56.876Z,87.35
2023-03-10T17:59:26.278Z,87.62
2023-03-10T18:01:55.721Z,87.58
2023-03-10T18:04:29.731Z,87.68
2023-03-10T18:06:59.138Z,87.53
2023-03-10T18:09:28.540Z,87.67
2023-03-10T18:11:59.110Z,87.78
2023-03-10T18:14:28.510Z,87.66
2023-03-10T18:16:58.059Z,87.50
2023-03-10T18:19:30.105Z,87.55
2023-03-10T18:21:59.955Z,87.28
2023-03-10T18:24:29.708Z,87.13
2023-03-10T18:27:01.484Z,87.10
2023-03-10T18:29:31.155Z,87.68
2023-03-10T18:32:00.495Z,87.74
2023-03-10T18:34:32.526Z,87.63
2023-03-10T18:37:01.913Z,87.85
2023-03-10T18:39:31.293Z,87.11
2023-03-10T18:42:00.654Z,86.71
2023-03-10T18:44:30.291Z,87.43
2023-03-10T18:46:59.691Z,87.55
2023-03-10T18:49:31.742Z,87.89
2023-03-10T18:52:01.139Z,87.75
2023-03-10T18:54:30.536Z,87.75
2023-03-10T18:57:01.742Z,87.24
2023-03-10T18:59:31.180Z,87.66
2023-03-10T19:02:00.700Z,87.62
2023-03-10T19:04:32.745Z,88.17
2023-03-10T19:07:02.102Z,88.13
2023-03-10T19:09:31.443Z,88.20
2023-03-10T19:12:00.815Z,87.76
2023-03-10T19:14:30.179Z,87.85
2023-03-10T19:16:59.644Z,88.06
2023-03-10T19:19:28.994Z,88.31
2023-03-10T19:22:01.006Z,88.52
2023-03-10T19:24:30.530Z,88.82
2023-03-10T19:26:59.925Z,88.88
2023-03-10T19:29:29.288Z,88.89
2023-03-10T19:31:59.409Z,88.89
2023-03-10T19:34:28.856Z,89.00
2023-03-10T19:37:00.979Z,89.29
2023-03-10T19:39:30.384Z,89.53
2023-03-10T19:41:59.792Z,89.47
2023-03-10T19:44:29.252Z,89.88
2023-03-10T19:46:58.709Z,90.15
2023-03-10T19:49:28.727Z,90.38
2023-03-10T19:52:00.662Z,90.46
2023-03-10T19:54:31.118Z,90.52
2023-03-10T19:57:00.481Z,90.54
2023-03-10T19:59:29.861Z,90.74
2023-03-10T20:02:02.403Z,90.77
2023-03-10T20:04:34.538Z,91.04
2023-03-10T20:07:06.552Z,91.18
2023-03-10T20:09:35.975Z,90.93
2023-03-10T20:12:05.879Z,90.98
2023-03-10T20:14:35.420Z,91.34
2023-03-10T20:17:04.822Z,91.38
2023-03-10T20:19:34.214Z,91.73
2023-03-10T20:22:06.176Z,91.65
2023-03-10T20:24:35.558Z,91.55
2023-03-10T20:27:04.880Z,91.70
2023-03-10T20:29:34.664Z,91.85
2023-03-10T20:32:04.389Z,91.71
2023-03-10T20:34:34.636Z,91.83
2023-03-10T20:37:06.549Z,91.82
2023-03-10T20:39:35.950Z,91.95
2023-03-10T20:42:05.385Z,92.16
2023-03-10T20:44:34.974Z,92.34
2023-03-10T20:47:04.355Z,92.59
2023-03-10T20:49:33.730Z,92.54
2023-03-10T20:52:05.802Z,92.75
2023-03-10T20:54:35.191Z,92.71
2023-03-10T20:57:04.773Z,92.57
2023-03-10T20:59:34.177Z,92.52
2023-03-10T21:02:03.602Z,92.63
2023-03-10T21:04:33.063Z,92.50
2023-03-10T21:07:02.493Z,92.42
2023-03-10T21:09:34.487Z,92.30
2023-03-10T21:12:03.884Z,92.39
2023-03-10T21:14:33.296Z,92.43
2023-03-10T21:17:03.258Z,92.27
2023-03-10T21:19:32.868Z,92.34
2023-03-10T21:22:03.542Z,92.20
2023-03-10T21:24:35.847Z,92.22
2023-03-10T21:27:05.372Z,92.22
2023-03-10T21:29:36.783Z,92.57
2023-03-10T21:32:06.452Z,92.38
2023-03-10T21:34:35.924Z,92.28
2023-03-10T21:37:05.652Z,92.76
2023-03-10T21:39:37.800Z,92.99
2023-03-10T21:42:07.651Z,92.89
2023-03-10T21:44:37.974Z,92.96
2023-03-10T21:47:07.538Z,92.97
2023-03-10T21:49:37.181Z,93.14
2023-03-10T21:52:06.931Z,93.14
2023-03-10T21:54:38.959Z,93.22
2023-03-10T21:57:08.371Z,93.29
2023-03-10T21:59:37.780Z,93.17
2023-03-10T22:02:08.282Z,92.95
2023-03-10T22:04:37.697Z,93.11
2023-03-10T22:07:07.063Z,93.27
2023-03-10T22:09:42.408Z,93.18
2023-03-10T22:12:12.814Z,93.19
2023-03-10T22:14:42.582Z,92.94
2023-03-10T22:17:12.205Z,92.93
2023-03-10T22:19:41.857Z,92.90
2023-03-10T22:22:11.253Z,92.87
2023-03-10T22:24:43.670Z,92.84
2023-03-10T22:27:13.258Z,92.76
2023-03-10T22:29:42.638Z,92.65
2023-03-10T22:32:12.022Z,92.67
2023-03-10T22:34:41.863Z,92.80
2023-03-10T22:37:12.348Z,92.84
2023-03-10T22:39:46.426Z,93.01
2023-03-10T22:42:16.089Z,92.94
2023-03-10T22:44:45.466Z,92.85
2023-03-10T22:47:14.807Z,92.70
2023-03-10T22:49:44.369Z,92.47
2023-03-10T22:52:13.778Z,92.29
2023-03-10T22:54:45.944Z,91.94
2023-03-10T22:57:15.367Z,91.88
2023-03-10T22:59:44.783Z,91.28
2023-03-10T23:02:14.148Z,91.09
2023-03-10T23:04:44.462Z,91.42
2023-03-10T23:07:13.826Z,91.07
2023-03-10T23:09:45.798Z,90.84
2023-03-10T23:12:15.217Z,90.68
2023-03-10T23:14:44.623Z,90.97
2023-03-10T23:17:14.025Z,90.68
2023-03-10T23:19:43.435Z,91.03
2023-03-10T23:22:12.846Z,91.25
2023-03-10T23:24:44.780Z,91.24
2023-03-10T23:27:14.423Z,91.42
2023-03-10T23:29:43.821Z,91.50
2023-03-10T23:32:13.713Z,91.42
2023-03-10T23:34:43.133Z,91.25
2023-03-10T23:37:12.524Z,91.25
2023-03-10T23:39:41.869Z,91.43
2023-03-10T23:42:13.829Z,91.18
2023-03-10T23:44:43.423Z,90.78
2023-03-10T23:47:12.797Z,90.90
2023-03-10T23:49:42.223Z,90.57
2023-03-10T23:52:11.623Z,90.89
2023-03-10T23:54:40.995Z,90.96
2023-03-10T23:57:10.383Z,90.97
2023-03-10T23:59:44.160Z,91.12
